Minerva Zenia — SYNB — position and weather

sailwx.info

Track history (hours):
 
Tides and Currents Weather Stations Pressure Air Temp Water Temp Dewpoint Dewpoint Depression Visibility Wind Speed Wind Dir Waves Ship Positions

Minerva Zenia

Last reported at 2017-Mar-27 15:33 UTC. Time now 2017-Mar-27 16:31 UTC.
Position N 45°01' E 036°36'.

Length 248 m; draft 14 m.

Type: Ship. MMSI: 240014000.

Date/timePositionNaut miles runAvg speedWind from/ knotsBaromVisibWave heightAir tempDewpointWater temp
2017-Mar-27 15:33N 45°01' E 036°36'  
2017-Mar-24 14:28N 45°07' E 036°40'4 4.3
2017-Mar-24 13:33N 45°05' E 036°35'0 0.4
2017-Mar-24 12:31N 45°05' E 036°35'0 0.0
2017-Mar-24 11:19N 45°05' E 036°35'0 0.0
2017-Mar-24 10:31N 45°05' E 036°35'0 0.0
2017-Mar-24 09:28N 45°05' E 036°35'0 0.1
2017-Mar-24 08:25N 45°05' E 036°35'0 0.0
2017-Mar-24 05:22N 45°04' E 036°35'0 0.1
2017-Mar-24 04:31N 45°04' E 036°35'0 0.0
2017-Mar-24 03:31N 45°04' E 036°35'0 0.0
2017-Mar-24 02:25N 45°04' E 036°35'0 0.1
2017-Mar-24 01:31N 45°04' E 036°35'0 0.1
2017-Mar-24 00:31N 45°04' E 036°35'0 0.0
2017-Mar-23 23:31N 45°04' E 036°35'0 0.0
2017-Mar-23 22:31N 45°04' E 036°35'0 0.0
2017-Mar-23 21:31N 45°04' E 036°35'0 0.0
2017-Mar-23 20:31N 45°04' E 036°35'0 0.0
2017-Mar-23 19:31N 45°04' E 036°35'0 0.1
2017-Mar-23 18:31N 45°04' E 036°35'0 0.0
2017-Mar-23 17:31N 45°04' E 036°35'0 0.1
2017-Mar-23 16:31N 45°04' E 036°35'0 0.0
2017-Mar-23 15:31N 45°04' E 036°35'0 0.0
2017-Mar-23 14:19N 45°04' E 036°35'0 0.0
2017-Mar-23 13:25N 45°04' E 036°35'1 1.1
2017-Mar-23 12:33N 45°03' E 036°35'14 1.0
2017-Mar-22 22:27N 44°50' E 036°37'0 0.0
2017-Mar-22 21:33N 44°50' E 036°37'0 0.0
2017-Mar-22 20:27N 44°50' E 036°37'0 0.0
2017-Mar-22 19:30N 44°50' E 036°37'  
Track history (hours):
 
Tides and Currents Weather Stations Pressure Air Temp Water Temp Dewpoint Dewpoint Depression Visibility Wind Speed Wind Dir Waves Ship Positions

Minerva Zenia

Last reported at 2017-Mar-27 15:33 UTC. Time now 2017-Mar-27 16:31 UTC.
Position N 45°01' E 036°36'.

Length 248 m; draft 14 m.

Type: Ship. MMSI: 240014000.

Date/timePositionNaut miles runAvg speedWind from/ knotsBaromVisibWave heightAir tempDewpointWater temp
2017-Mar-27 15:33N 45°01' E 036°36'  
2017-Mar-24 14:28N 45°07' E 036°40'4 4.3
2017-Mar-24 13:33N 45°05' E 036°35'0 0.4
2017-Mar-24 12:31N 45°05' E 036°35'0 0.0
2017-Mar-24 11:19N 45°05' E 036°35'0 0.0
2017-Mar-24 10:31N 45°05' E 036°35'0 0.0
2017-Mar-24 09:28N 45°05' E 036°35'0 0.1
2017-Mar-24 08:25N 45°05' E 036°35'0 0.0
2017-Mar-24 05:22N 45°04' E 036°35'0 0.1
2017-Mar-24 04:31N 45°04' E 036°35'0 0.0
2017-Mar-24 03:31N 45°04' E 036°35'0 0.0
2017-Mar-24 02:25N 45°04' E 036°35'0 0.1
2017-Mar-24 01:31N 45°04' E 036°35'0 0.1
2017-Mar-24 00:31N 45°04' E 036°35'0 0.0
2017-Mar-23 23:31N 45°04' E 036°35'0 0.0
2017-Mar-23 22:31N 45°04' E 036°35'0 0.0
2017-Mar-23 21:31N 45°04' E 036°35'0 0.0
2017-Mar-23 20:31N 45°04' E 036°35'0 0.0
2017-Mar-23 19:31N 45°04' E 036°35'0 0.1
2017-Mar-23 18:31N 45°04' E 036°35'0 0.0
2017-Mar-23 17:31N 45°04' E 036°35'0 0.1
2017-Mar-23 16:31N 45°04' E 036°35'0 0.0
2017-Mar-23 15:31N 45°04' E 036°35'0 0.0
2017-Mar-23 14:19N 45°04' E 036°35'0 0.0
2017-Mar-23 13:25N 45°04' E 036°35'1 1.1
2017-Mar-23 12:33N 45°03' E 036°35'14 1.0
2017-Mar-22 22:27N 44°50' E 036°37'0 0.0
2017-Mar-22 21:33N 44°50' E 036°37'0 0.0
2017-Mar-22 20:27N 44°50' E 036°37'0 0.0
2017-Mar-22 19:30N 44°50' E 036°37'  

Dump ship's entire track history